Time;durP1;ratioP1;P1;durP2;ratioP2;P2;SDS_P1;SDS_P2;PMS_P1;PMS_P2;Temp;Humidity;BMP_temperature;BMP_pressure;BME280_temperature;BME280_humidity;BME280_pressure;Samples;Min_cycle;Max_cycle;Signal;HPM_P1;HPM_P2
2023/04/30 00:02:14;;;;;;;;;;;11.80;66.40;;;;;;5030124;28;20459;-76
2023/04/30 00:04:39;;;;;;;;;;;11.80;66.40;;;;;;5026576;28;19982;-76
2023/04/30 00:07:05;;;;;;;;;;;11.80;66.50;;;;;;5020853;28;19921;-76
2023/04/30 00:09:30;;;;;;;;;;;11.80;66.50;;;;;;5012621;28;19925;-76
2023/04/30 00:11:56;;;;;;;;;;;11.80;66.50;;;;;;5028640;28;19924;-76
2023/04/30 00:14:21;;;;;;;;;;;11.80;66.50;;;;;;5031292;28;19921;-76
2023/04/30 00:16:47;;;;;;;;;;;11.80;66.50;;;;;;5030179;28;19921;-76
2023/04/30 00:19:12;;;;;;;;;;;11.80;66.60;;;;;;5029695;28;19936;-76
2023/04/30 00:21:38;;;;;;;;;;;11.80;66.60;;;;;;5013648;28;19925;-76
2023/04/30 00:24:03;;;;;;;;;;;11.70;66.60;;;;;;5029158;28;19948;-76
2023/04/30 00:26:29;;;;;;;;;;;11.70;66.60;;;;;;5031735;28;20016;-76
2023/04/30 00:28:54;;;;;;;;;;;11.70;66.60;;;;;;5025160;28;20626;-76
2023/04/30 00:31:20;;;;;;;;;;;11.70;66.60;;;;;;5032117;28;19921;-76
2023/04/30 00:33:45;;;;;;;;;;;11.70;66.60;;;;;;5009238;28;19970;-76
2023/04/30 00:36:11;;;;;;;;;;;11.70;66.70;;;;;;5027912;28;19939;-76
2023/04/30 00:38:36;;;;;;;;;;;11.70;66.70;;;;;;5027624;28;19921;-76
2023/04/30 00:41:01;;;;;;;;;;;11.70;66.70;;;;;;5013073;28;20610;-76
2023/04/30 00:43:27;;;;;;;;;;;11.70;67.50;;;;;;5010275;28;19944;-76
2023/04/30 00:45:52;;;;;;;;;;;11.70;66.70;;;;;;5008881;28;19927;-76
2023/04/30 00:48:18;;;;;;;;;;;11.70;66.80;;;;;;5009667;28;19925;-76
2023/04/30 00:50:43;;;;;;;;;;;11.60;66.70;;;;;;5007057;28;19928;-75
2023/04/30 00:53:12;;;;;;;;;;;11.60;66.70;;;;;;5011954;28;20023;-76
2023/04/30 00:55:38;;;;;;;;;;;11.60;66.70;;;;;;5009681;28;20311;-76
2023/04/30 00:58:03;;;;;;;;;;;11.60;66.80;;;;;;5020770;28;19918;-76
2023/04/30 01:00:29;;;;;;;;;;;11.60;66.80;;;;;;5009327;28;19926;-76
2023/04/30 01:02:55;;;;;;;;;;;11.60;66.80;;;;;;5017589;28;20621;-75
2023/04/30 01:05:21;;;;;;;;;;;11.60;66.80;;;;;;5009647;28;19921;-76
2023/04/30 01:07:48;;;;;;;;;;;11.50;66.80;;;;;;5023121;28;20434;-76
2023/04/30 01:10:13;;;;;;;;;;;11.50;66.80;;;;;;4997103;28;20003;-76
2023/04/30 01:12:42;;;;;;;;;;;11.50;66.80;;;;;;5004778;28;20005;-76
2023/04/30 01:15:08;;;;;;;;;;;11.50;66.80;;;;;;5017798;28;19951;-76
2023/04/30 01:17:38;;;;;;;;;;;11.50;66.90;;;;;;5016195;28;20375;-76
2023/04/30 01:20:04;;;;;;;;;;;11.50;66.80;;;;;;5017381;28;20280;-76
2023/04/30 01:22:47;;;;;;;;;;;11.50;66.90;;;;;;4996066;28;20639;-76
2023/04/30 01:25:18;;;;;;;;;;;11.50;67.00;;;;;;4996641;28;19943;-76
2023/04/30 01:27:47;;;;;;;;;;;11.40;66.90;;;;;;5007445;28;19921;-76
2023/04/30 01:30:15;;;;;;;;;;;11.40;66.90;;;;;;5013368;28;19925;-76
2023/04/30 01:32:41;;;;;;;;;;;11.40;66.90;;;;;;5006890;28;20012;-76
2023/04/30 01:35:06;;;;;;;;;;;11.40;67.00;;;;;;5012379;28;19922;-76
2023/04/30 01:37:34;;;;;;;;;;;11.40;67.00;;;;;;5024151;28;19929;-76
2023/04/30 01:40:19;;;;;;;;;;;11.40;67.00;;;;;;5012358;28;19936;-76
2023/04/30 01:42:48;;;;;;;;;;;11.40;67.00;;;;;;5032900;28;19920;-76
2023/04/30 01:45:23;;;;;;;;;;;11.40;67.10;;;;;;5027555;28;19924;-76
2023/04/30 01:47:52;;;;;;;;;;;11.30;67.00;;;;;;5032094;28;19932;-76
2023/04/30 01:50:23;;;;;;;;;;;11.30;67.00;;;;;;5023380;28;20035;-76
2023/04/30 01:52:50;;;;;;;;;;;11.30;67.00;;;;;;5041946;28;19924;-75
2023/04/30 01:55:34;;;;;;;;;;;11.30;67.10;;;;;;5029520;28;20392;-75
2023/04/30 01:58:01;;;;;;;;;;;11.30;67.10;;;;;;5026111;28;19917;-76
2023/04/30 02:00:27;;;;;;;;;;;11.30;67.10;;;;;;5041821;28;19928;-76
2023/04/30 02:02:53;;;;;;;;;;;11.30;67.10;;;;;;5030123;28;19917;-76
2023/04/30 02:05:18;;;;;;;;;;;11.30;67.10;;;;;;5013449;28;19921;-76
2023/04/30 02:07:44;;;;;;;;;;;11.30;67.20;;;;;;4996253;28;19949;-76
2023/04/30 02:10:11;;;;;;;;;;;11.30;67.20;;;;;;5010098;28;19991;-76
2023/04/30 02:12:36;;;;;;;;;;;11.30;67.20;;;;;;4998882;28;20012;-76
2023/04/30 02:15:03;;;;;;;;;;;11.20;67.10;;;;;;5025140;28;20016;-76
2023/04/30 02:17:28;;;;;;;;;;;11.30;67.20;;;;;;4994284;28;19943;-76
2023/04/30 02:19:53;;;;;;;;;;;11.20;67.20;;;;;;4993542;28;20640;-76
2023/04/30 02:22:19;;;;;;;;;;;11.20;67.20;;;;;;5012921;28;20604;-76
2023/04/30 02:24:45;;;;;;;;;;;11.20;67.20;;;;;;5037934;28;19949;-76
2023/04/30 02:27:10;;;;;;;;;;;11.20;67.20;;;;;;5003873;28;19928;-76
2023/04/30 02:29:36;;;;;;;;;;;11.20;67.20;;;;;;5007040;28;20388;-76
2023/04/30 02:32:01;;;;;;;;;;;11.20;67.20;;;;;;5006081;28;19922;-75
2023/04/30 02:34:27;;;;;;;;;;;11.20;67.30;;;;;;5009400;28;20470;-76
2023/04/30 02:36:52;;;;;;;;;;;11.20;67.30;;;;;;5004222;28;19975;-76
2023/04/30 02:39:17;;;;;;;;;;;11.20;67.30;;;;;;4998529;28;21407;-76
2023/04/30 02:41:43;;;;;;;;;;;11.10;67.20;;;;;;5010475;28;19933;-76
2023/04/30 02:44:08;;;;;;;;;;;11.10;67.30;;;;;;5007349;28;20035;-76
2023/04/30 02:46:34;;;;;;;;;;;11.20;67.30;;;;;;5008951;28;19928;-76
2023/04/30 02:48:59;;;;;;;;;;;11.10;67.30;;;;;;5023623;28;19922;-76
2023/04/30 02:51:25;;;;;;;;;;;11.10;67.30;;;;;;5030726;28;19925;-75
2023/04/30 02:53:51;;;;;;;;;;;11.10;67.30;;;;;;5018974;28;19922;-75
2023/04/30 02:56:16;;;;;;;;;;;11.10;67.30;;;;;;5014818;28;19920;-76
2023/04/30 02:58:42;;;;;;;;;;;11.10;67.40;;;;;;5019037;28;20043;-76
2023/04/30 03:01:07;;;;;;;;;;;11.10;67.40;;;;;;5030898;28;19990;-76
2023/04/30 03:03:32;;;;;;;;;;;11.10;67.40;;;;;;5032207;28;20015;-76
2023/04/30 03:05:58;;;;;;;;;;;11.10;67.40;;;;;;5028930;28;19928;-75
2023/04/30 03:08:24;;;;;;;;;;;11.10;67.40;;;;;;5030539;28;19927;-76
2023/04/30 03:10:49;;;;;;;;;;;11.10;67.40;;;;;;5017836;28;20451;-75
2023/04/30 03:13:15;;;;;;;;;;;11.00;67.40;;;;;;5015267;28;19932;-75
2023/04/30 03:15:40;;;;;;;;;;;11.10;67.40;;;;;;5029332;28;19921;-76
2023/04/30 03:18:06;;;;;;;;;;;11.00;67.40;;;;;;5024962;28;19958;-76
2023/04/30 03:20:31;;;;;;;;;;;11.00;67.50;;;;;;5044043;28;20299;-76
2023/04/30 03:22:57;;;;;;;;;;;11.00;67.50;;;;;;5032662;28;19921;-76
2023/04/30 03:25:22;;;;;;;;;;;11.00;67.50;;;;;;5034046;28;19960;-76
2023/04/30 03:27:48;;;;;;;;;;;11.00;67.50;;;;;;5036428;28;19982;-76
2023/04/30 03:30:13;;;;;;;;;;;11.00;67.50;;;;;;5026864;28;19920;-76
2023/04/30 03:32:39;;;;;;;;;;;11.00;67.50;;;;;;5034652;28;19920;-76
2023/04/30 03:35:04;;;;;;;;;;;11.00;67.60;;;;;;5032412;28;19928;-76
2023/04/30 03:37:30;;;;;;;;;;;11.00;67.60;;;;;;5030650;28;20004;-76
2023/04/30 03:39:56;;;;;;;;;;;10.90;67.60;;;;;;5023507;28;19932;-76
2023/04/30 03:42:21;;;;;;;;;;;10.90;67.60;;;;;;5029262;28;19921;-76
2023/04/30 03:44:47;;;;;;;;;;;10.90;67.60;;;;;;5028157;28;19924;-76
2023/04/30 03:47:12;;;;;;;;;;;10.90;67.60;;;;;;5029403;28;19927;-76
2023/04/30 03:49:38;;;;;;;;;;;10.90;67.60;;;;;;5030896;28;19920;-76
2023/04/30 03:52:04;;;;;;;;;;;10.90;67.60;;;;;;5018872;28;19921;-76
2023/04/30 03:54:30;;;;;;;;;;;10.80;67.60;;;;;;5031348;28;19921;-76
2023/04/30 03:56:55;;;;;;;;;;;10.80;67.60;;;;;;5028873;28;19928;-76
2023/04/30 03:59:21;;;;;;;;;;;10.80;67.60;;;;;;5029327;28;19921;-76
2023/04/30 04:01:46;;;;;;;;;;;10.90;67.80;;;;;;5030123;28;20441;-76
2023/04/30 04:04:12;;;;;;;;;;;10.80;67.60;;;;;;5031598;28;20027;-76
2023/04/30 04:06:37;;;;;;;;;;;10.80;67.60;;;;;;5026240;28;19948;-76
2023/04/30 04:09:03;;;;;;;;;;;10.80;67.70;;;;;;5033020;28;19960;-76
2023/04/30 04:11:29;;;;;;;;;;;10.80;67.70;;;;;;5017142;28;19955;-76
2023/04/30 04:13:54;;;;;;;;;;;10.80;67.80;;;;;;5028010;28;19963;-75
2023/04/30 04:16:21;;;;;;;;;;;10.80;67.80;;;;;;5032307;28;19960;-76
2023/04/30 04:18:46;;;;;;;;;;;10.80;67.80;;;;;;5014478;28;19921;-76
2023/04/30 04:21:11;;;;;;;;;;;10.80;67.80;;;;;;5031471;28;20568;-76
2023/04/30 04:23:37;;;;;;;;;;;10.80;67.80;;;;;;5008095;28;19929;-76
2023/04/30 04:26:02;;;;;;;;;;;10.80;67.80;;;;;;5033341;28;19921;-76
2023/04/30 04:28:28;;;;;;;;;;;10.80;67.80;;;;;;5021191;28;19932;-76
2023/04/30 04:30:54;;;;;;;;;;;10.70;67.80;;;;;;5018720;28;20546;-75
2023/04/30 04:33:20;;;;;;;;;;;10.80;67.90;;;;;;5031345;28;19975;-77
2023/04/30 04:35:45;;;;;;;;;;;10.70;67.80;;;;;;5009757;28;19925;-76
2023/04/30 04:38:11;;;;;;;;;;;10.80;67.90;;;;;;5025474;28;19974;-75
2023/04/30 04:40:37;;;;;;;;;;;10.70;67.90;;;;;;5005341;28;19931;-75
2023/04/30 04:43:02;;;;;;;;;;;10.70;67.90;;;;;;5019398;28;20565;-75
2023/04/30 04:45:28;;;;;;;;;;;10.70;67.80;;;;;;5029768;28;20014;-76
2023/04/30 04:47:53;;;;;;;;;;;10.70;67.90;;;;;;5030355;28;19960;-76
2023/04/30 04:50:18;;;;;;;;;;;10.70;67.90;;;;;;5018434;28;19924;-76
2023/04/30 04:52:44;;;;;;;;;;;10.70;67.90;;;;;;5026003;28;20428;-76
2023/04/30 04:55:10;;;;;;;;;;;10.70;67.90;;;;;;5036835;28;20062;-76
2023/04/30 04:57:36;;;;;;;;;;;10.70;67.90;;;;;;5028309;28;19936;-75
2023/04/30 05:00:03;;;;;;;;;;;10.70;67.90;;;;;;5032633;28;19931;-76
2023/04/30 05:02:29;;;;;;;;;;;10.80;68.00;;;;;;5030154;28;19927;-76
2023/04/30 05:04:55;;;;;;;;;;;10.70;67.90;;;;;;5020756;28;19931;-76
2023/04/30 05:07:20;;;;;;;;;;;10.70;67.90;;;;;;5029718;28;19920;-76
2023/04/30 05:09:46;;;;;;;;;;;10.80;68.00;;;;;;5030432;28;20342;-76
2023/04/30 05:12:12;;;;;;;;;;;10.80;68.00;;;;;;5026293;28;19920;-75
2023/04/30 05:14:37;;;;;;;;;;;10.80;68.00;;;;;;5015211;28;19971;-76
2023/04/30 05:17:03;;;;;;;;;;;10.80;67.90;;;;;;5038234;28;19967;-76
2023/04/30 05:19:28;;;;;;;;;;;10.80;67.90;;;;;;5030837;28;20013;-76
2023/04/30 05:21:53;;;;;;;;;;;10.80;67.90;;;;;;5025417;28;20533;-76
2023/04/30 05:24:19;;;;;;;;;;;10.80;67.90;;;;;;5027660;28;19931;-76
2023/04/30 05:26:44;;;;;;;;;;;10.90;67.90;;;;;;5012585;28;19992;-75
2023/04/30 05:29:10;;;;;;;;;;;10.90;67.90;;;;;;5007956;28;19921;-76
2023/04/30 05:31:36;;;;;;;;;;;10.90;67.80;;;;;;5007566;28;19971;-75
2023/04/30 05:34:01;;;;;;;;;;;11.00;67.90;;;;;;5011538;28;19925;-76
2023/04/30 05:36:28;;;;;;;;;;;11.00;67.80;;;;;;5010291;28;19953;-76
2023/04/30 05:38:53;;;;;;;;;;;11.10;67.80;;;;;;5008099;28;20508;-76
2023/04/30 05:41:20;;;;;;;;;;;11.10;67.70;;;;;;5018657;28;19979;-76
2023/04/30 05:43:45;;;;;;;;;;;11.10;67.70;;;;;;5019105;28;19921;-76
2023/04/30 05:46:11;;;;;;;;;;;11.20;67.70;;;;;;5028389;28;19921;-76
2023/04/30 05:48:37;;;;;;;;;;;11.20;67.70;;;;;;5033132;28;20484;-77
2023/04/30 05:51:05;;;;;;;;;;;11.30;67.60;;;;;;5028437;28;19921;-76
2023/04/30 05:53:30;;;;;;;;;;;11.30;67.60;;;;;;5031424;28;20014;-76
2023/04/30 05:55:56;;;;;;;;;;;11.30;67.50;;;;;;5017223;28;19963;-76
2023/04/30 05:58:21;;;;;;;;;;;11.40;67.60;;;;;;5029823;28;19921;-77
2023/04/30 06:00:50;;;;;;;;;;;11.40;67.50;;;;;;5015199;28;20037;-76
2023/04/30 06:03:17;;;;;;;;;;;11.40;67.40;;;;;;5032127;28;19960;-76
2023/04/30 06:05:43;;;;;;;;;;;11.50;67.40;;;;;;5030628;28;20452;-76
2023/04/30 06:08:08;;;;;;;;;;;11.60;67.40;;;;;;5028370;28;21211;-76
2023/04/30 06:10:33;;;;;;;;;;;11.60;67.40;;;;;;5027058;28;20395;-76
2023/04/30 06:12:59;;;;;;;;;;;11.70;67.30;;;;;;5035758;28;19928;-76
2023/04/30 06:15:24;;;;;;;;;;;11.70;67.30;;;;;;5034233;28;19920;-76
2023/04/30 06:17:50;;;;;;;;;;;11.80;67.20;;;;;;5031324;28;19921;-76
2023/04/30 06:20:15;;;;;;;;;;;11.90;67.20;;;;;;5031710;28;20457;-76
2023/04/30 06:22:41;;;;;;;;;;;11.90;67.10;;;;;;5011334;28;19941;-76
2023/04/30 06:25:06;;;;;;;;;;;12.00;67.10;;;;;;5033343;28;19925;-76
2023/04/30 06:27:32;;;;;;;;;;;12.10;67.00;;;;;;5031410;28;19925;-76
2023/04/30 06:29:59;;;;;;;;;;;12.20;67.00;;;;;;5019466;28;19921;-77
2023/04/30 06:35:28;;;;;;;;;;;12.40;66.90;;;;;;5024993;28;20074;-76
2023/04/30 06:37:54;;;;;;;;;;;12.50;66.80;;;;;;5025867;28;20387;-76
2023/04/30 06:40:19;;;;;;;;;;;12.60;66.80;;;;;;5023023;28;19928;-76
2023/04/30 06:42:47;;;;;;;;;;;12.70;66.70;;;;;;5022545;28;20300;-76
2023/04/30 06:45:14;;;;;;;;;;;12.80;66.60;;;;;;5026342;28;20759;-77
2023/04/30 06:47:41;;;;;;;;;;;12.90;66.50;;;;;;5029007;28;19927;-76
2023/04/30 06:50:07;;;;;;;;;;;12.90;66.30;;;;;;5010025;28;19960;-77
2023/04/30 06:52:32;;;;;;;;;;;13.00;66.20;;;;;;5011479;28;20615;-76
2023/04/30 06:54:58;;;;;;;;;;;13.10;66.10;;;;;;5024795;28;19922;-76
2023/04/30 06:57:24;;;;;;;;;;;13.20;66.00;;;;;;5004819;28;19921;-77
2023/04/30 06:59:50;;;;;;;;;;;13.40;66.00;;;;;;5016965;28;19920;-76
2023/04/30 07:02:15;;;;;;;;;;;13.40;65.90;;;;;;5014749;28;19944;-77
2023/04/30 07:04:41;;;;;;;;;;;13.60;65.80;;;;;;5024161;28;19925;-78
2023/04/30 07:07:06;;;;;;;;;;;13.60;65.70;;;;;;5024202;28;20298;-76
2023/04/30 07:09:31;;;;;;;;;;;13.80;65.60;;;;;;5049092;28;19921;-77
2023/04/30 07:12:00;;;;;;;;;;;13.90;65.50;;;;;;5027209;28;19920;-77
2023/04/30 07:14:26;;;;;;;;;;;14.00;65.40;;;;;;5028957;28;20433;-77
2023/04/30 07:16:51;;;;;;;;;;;14.00;65.20;;;;;;5030010;28;19971;-76
2023/04/30 07:19:17;;;;;;;;;;;14.10;65.20;;;;;;5012888;28;19925;-77
2023/04/30 07:21:42;;;;;;;;;;;14.30;65.20;;;;;;5029815;28;19925;-77
2023/04/30 07:24:08;;;;;;;;;;;14.40;65.10;;;;;;5028287;28;21660;-77
2023/04/30 07:26:33;;;;;;;;;;;14.50;65.00;;;;;;5027729;28;19917;-76
2023/04/30 07:28:59;;;;;;;;;;;14.60;64.80;;;;;;5027844;28;20387;-77
2023/04/30 07:31:25;;;;;;;;;;;14.80;64.80;;;;;;5028595;28;19929;-77
2023/04/30 07:33:51;;;;;;;;;;;14.90;64.70;;;;;;5019909;28;20010;-76
2023/04/30 07:36:16;;;;;;;;;;;15.00;64.50;;;;;;5025444;28;20386;-77
2023/04/30 07:38:42;;;;;;;;;;;15.10;64.40;;;;;;5026736;28;19920;-77
2023/04/30 07:41:08;;;;;;;;;;;15.20;64.20;;;;;;5027690;28;20456;-76
2023/04/30 07:43:34;;;;;;;;;;;15.30;64.10;;;;;;5026419;28;20011;-77
2023/04/30 07:45:59;;;;;;;;;;;15.50;64.10;;;;;;5043418;28;19927;-76
2023/04/30 07:48:25;;;;;;;;;;;15.50;63.90;;;;;;5033533;28;19925;-77
2023/04/30 07:50:50;;;;;;;;;;;15.70;63.80;;;;;;5029224;28;19921;-76
2023/04/30 07:53:15;;;;;;;;;;;15.80;63.80;;;;;;5028454;28;20039;-76
2023/04/30 07:55:41;;;;;;;;;;;15.90;63.60;;;;;;5010125;28;19921;-77
2023/04/30 07:58:06;;;;;;;;;;;16.00;63.50;;;;;;5018208;28;19928;-77
2023/04/30 08:00:32;;;;;;;;;;;16.10;63.40;;;;;;5019894;28;19924;-77
2023/04/30 08:02:58;;;;;;;;;;;16.20;63.30;;;;;;5010019;28;20007;-76
2023/04/30 08:05:23;;;;;;;;;;;16.40;63.20;;;;;;5025509;28;19921;-77
2023/04/30 08:07:48;;;;;;;;;;;16.50;63.00;;;;;;5034248;28;19924;-77
2023/04/30 08:10:14;;;;;;;;;;;16.60;62.90;;;;;;5035617;28;19943;-77
2023/04/30 08:12:39;;;;;;;;;;;16.70;62.80;;;;;;5035204;28;19966;-76
2023/04/30 08:15:06;;;;;;;;;;;16.80;62.70;;;;;;5030316;28;20015;-77
2023/04/30 08:17:31;;;;;;;;;;;17.00;62.60;;;;;;5013240;28;20265;-77
2023/04/30 08:19:57;;;;;;;;;;;17.10;62.40;;;;;;5029782;28;19930;-77
2023/04/30 08:22:23;;;;;;;;;;;17.20;62.30;;;;;;5028625;28;19949;-77
2023/04/30 08:24:48;;;;;;;;;;;17.30;62.20;;;;;;5029513;28;19928;-76
2023/04/30 08:27:14;;;;;;;;;;;17.40;62.10;;;;;;5021185;28;19932;-77
2023/04/30 08:29:40;;;;;;;;;;;17.50;62.00;;;;;;5011414;28;20402;-77
2023/04/30 08:32:05;;;;;;;;;;;17.70;61.90;;;;;;5034862;28;19921;-77
2023/04/30 08:34:31;;;;;;;;;;;17.90;61.70;;;;;;5029764;28;19929;-77
2023/04/30 08:36:56;;;;;;;;;;;18.00;61.60;;;;;;5024620;28;20067;-77
2023/04/30 08:39:21;;;;;;;;;;;18.20;62.30;;;;;;5019093;28;20063;-77
2023/04/30 08:41:50;;;;;;;;;;;18.30;61.40;;;;;;5043762;28;19982;-77
2023/04/30 08:44:15;;;;;;;;;;;18.40;61.20;;;;;;5033710;28;21212;-77
2023/04/30 08:46:41;;;;;;;;;;;18.60;61.10;;;;;;5027331;28;19946;-77
2023/04/30 08:49:06;;;;;;;;;;;18.70;60.90;;;;;;5011499;28;19932;-77
2023/04/30 08:51:32;;;;;;;;;;;18.80;60.80;;;;;;5041190;28;19947;-77
2023/04/30 08:53:57;;;;;;;;;;;19.00;60.70;;;;;;5034027;28;19921;-76
2023/04/30 08:56:24;;;;;;;;;;;19.20;60.60;;;;;;5030930;28;19936;-77
2023/04/30 08:58:49;;;;;;;;;;;19.30;60.30;;;;;;5030237;28;19999;-77
2023/04/30 09:01:15;;;;;;;;;;;19.50;60.20;;;;;;5034283;28;19925;-76
2023/04/30 09:03:40;;;;;;;;;;;19.60;60.00;;;;;;5028534;28;19948;-77
2023/04/30 09:06:09;;;;;;;;;;;19.80;59.90;;;;;;5034744;28;20203;-76
2023/04/30 09:08:45;;;;;;;;;;;19.90;59.70;;;;;;5032632;28;19970;-76
2023/04/30 09:11:29;;;;;;;;;;;20.10;59.60;;;;;;5032218;28;19940;-76
2023/04/30 09:13:56;;;;;;;;;;;20.30;59.50;;;;;;5032906;28;19924;-76
2023/04/30 09:16:22;;;;;;;;;;;20.50;59.40;;;;;;5028145;28;19932;-77
2023/04/30 09:18:47;;;;;;;;;;;20.60;59.20;;;;;;5029036;28;19921;-76
2023/04/30 09:21:13;;;;;;;;;;;20.80;59.10;;;;;;5024917;28;20038;-77
2023/04/30 09:23:52;;;;;;;;;;;20.90;59.00;;;;;;4995723;28;19921;-77
2023/04/30 09:26:20;;;;;;;;;;;21.10;58.80;;;;;;5009270;28;19967;-76
2023/04/30 09:28:56;;;;;;;;;;;21.20;58.80;;;;;;5005948;28;19922;-77
2023/04/30 09:31:21;;;;;;;;;;;21.40;58.70;;;;;;5029424;28;20012;-77
2023/04/30 09:33:47;;;;;;;;;;;21.50;58.40;;;;;;5014303;28;19925;-77
2023/04/30 09:36:12;;;;;;;;;;;21.60;58.30;;;;;;5022517;28;19973;-77
2023/04/30 09:38:38;;;;;;;;;;;21.80;58.30;;;;;;5027319;28;19921;-76
2023/04/30 09:41:03;;;;;;;;;;;21.90;58.20;;;;;;5039916;28;20652;-77
2023/04/30 09:43:29;;;;;;;;;;;22.10;58.10;;;;;;5021894;28;20616;-77
2023/04/30 09:45:56;;;;;;;;;;;22.20;57.90;;;;;;5025558;28;20603;-77
2023/04/30 09:48:21;;;;;;;;;;;22.30;57.80;;;;;;5020970;28;20335;-77
2023/04/30 09:50:47;;;;;;;;;;;22.40;57.60;;;;;;5029586;28;19924;-77
2023/04/30 09:53:13;;;;;;;;;;;22.50;57.60;;;;;;5029908;28;19920;-77
2023/04/30 09:55:41;;;;;;;;;;;22.50;57.50;;;;;;5026622;28;19928;-77
2023/04/30 09:58:06;;;;;;;;;;;22.60;57.40;;;;;;5028877;28;20274;-77
2023/04/30 10:00:32;;;;;;;;;;;22.60;57.40;;;;;;5027102;28;20008;-76
2023/04/30 10:02:58;;;;;;;;;;;22.70;57.40;;;;;;5027531;28;19916;-77
2023/04/30 10:05:23;;;;;;;;;;;22.80;57.30;;;;;;5020068;28;20016;-78
2023/04/30 10:07:49;;;;;;;;;;;22.90;57.10;;;;;;5008589;28;19921;-76
2023/04/30 10:10:14;;;;;;;;;;;23.00;57.10;;;;;;5011672;28;20523;-77
2023/04/30 10:12:47;;;;;;;;;;;23.00;57.10;;;;;;5009075;28;19925;-77
2023/04/30 10:15:30;;;;;;;;;;;23.10;56.90;;;;;;5007541;28;20009;-76
2023/04/30 10:17:57;;;;;;;;;;;23.40;57.60;;;;;;5022378;28;19928;-77
2023/04/30 10:20:22;;;;;;;;;;;23.50;56.70;;;;;;5017307;28;20055;-76
2023/04/30 10:22:48;;;;;;;;;;;23.60;56.60;;;;;;5044672;28;20524;-76
2023/04/30 10:25:13;;;;;;;;;;;23.70;56.50;;;;;;5030802;28;19920;-76
2023/04/30 10:27:39;;;;;;;;;;;23.90;56.40;;;;;;5010388;28;19921;-76
2023/04/30 10:30:08;;;;;;;;;;;24.00;56.30;;;;;;5033454;28;20076;-77
2023/04/30 10:32:37;;;;;;;;;;;24.10;56.10;;;;;;5016726;28;19928;-77
2023/04/30 10:35:09;;;;;;;;;;;24.20;56.00;;;;;;5034752;28;19974;-77
2023/04/30 10:37:42;;;;;;;;;;;24.20;56.00;;;;;;5017199;28;19925;-77
2023/04/30 10:40:08;;;;;;;;;;;24.30;55.90;;;;;;5007013;28;19992;-78
2023/04/30 10:42:34;;;;;;;;;;;24.30;55.80;;;;;;5009924;28;19920;-77
2023/04/30 10:45:03;;;;;;;;;;;24.50;55.80;;;;;;5024217;28;19921;-77
2023/04/30 10:47:31;;;;;;;;;;;24.60;55.60;;;;;;5018901;28;19979;-77
2023/04/30 10:50:03;;;;;;;;;;;24.80;55.50;;;;;;5011740;28;19936;-77
2023/04/30 10:52:28;;;;;;;;;;;25.00;55.40;;;;;;5036670;28;19921;-77
2023/04/30 10:54:54;;;;;;;;;;;25.10;55.30;;;;;;5008986;28;20482;-77
2023/04/30 10:57:19;;;;;;;;;;;25.20;55.20;;;;;;5010009;28;19949;-77
2023/04/30 10:59:51;;;;;;;;;;;25.40;55.10;;;;;;5005111;28;19928;-77
2023/04/30 11:02:16;;;;;;;;;;;25.40;54.90;;;;;;5014658;28;19932;-76
2023/04/30 11:05:01;;;;;;;;;;;25.50;55.00;;;;;;5007202;28;20323;-76
2023/04/30 11:07:27;;;;;;;;;;;25.60;54.70;;;;;;5023396;28;19921;-76
2023/04/30 11:09:55;;;;;;;;;;;25.70;54.80;;;;;;5038743;28;19925;-76
2023/04/30 11:12:27;;;;;;;;;;;25.80;54.70;;;;;;5028062;28;19925;-77
2023/04/30 11:14:52;;;;;;;;;;;25.90;54.70;;;;;;5025825;28;19957;-76
2023/04/30 11:17:21;;;;;;;;;;;26.00;54.50;;;;;;5027856;28;20014;-76
2023/04/30 11:19:50;;;;;;;;;;;26.10;54.50;;;;;;5029339;28;19921;-77
2023/04/30 11:22:22;;;;;;;;;;;26.20;54.40;;;;;;5034921;28;19951;-77
2023/04/30 11:25:08;;;;;;;;;;;26.30;54.40;;;;;;5012820;28;20354;-76
2023/04/30 11:27:35;;;;;;;;;;;26.30;54.30;;;;;;5029728;28;19932;-77
2023/04/30 11:30:00;;;;;;;;;;;26.40;54.30;;;;;;5043540;28;21328;-77
2023/04/30 11:32:30;;;;;;;;;;;26.50;54.20;;;;;;5027813;28;19920;-77
2023/04/30 11:34:56;;;;;;;;;;;26.60;54.20;;;;;;5034177;28;19920;-77
2023/04/30 11:37:30;;;;;;;;;;;26.80;54.10;;;;;;5028767;28;20406;-77
2023/04/30 11:39:56;;;;;;;;;;;27.00;54.00;;;;;;5033845;28;19933;-77
2023/04/30 11:42:21;;;;;;;;;;;27.10;53.80;;;;;;5031830;28;19979;-76
2023/04/30 11:44:47;;;;;;;;;;;27.10;53.70;;;;;;5029693;28;19996;-76
2023/04/30 11:47:13;;;;;;;;;;;27.20;53.70;;;;;;5024424;28;19927;-77
2023/04/30 11:49:38;;;;;;;;;;;27.20;53.70;;;;;;5031210;28;19921;-77
2023/04/30 11:52:04;;;;;;;;;;;27.20;53.70;;;;;;5028938;28;19986;-77
2023/04/30 11:54:34;;;;;;;;;;;27.20;53.60;;;;;;5027762;28;19927;-77
2023/04/30 11:57:02;;;;;;;;;;;27.30;53.50;;;;;;5031700;28;19986;-77
2023/04/30 11:59:31;;;;;;;;;;;27.40;54.20;;;;;;5027897;28;19921;-76
2023/04/30 12:01:57;;;;;;;;;;;27.30;53.50;;;;;;5033188;28;20525;-77
2023/04/30 12:04:22;;;;;;;;;;;27.20;53.50;;;;;;5015807;28;19928;-77
2023/04/30 12:06:48;;;;;;;;;;;27.40;53.50;;;;;;5034179;28;19925;-76
2023/04/30 12:09:13;;;;;;;;;;;27.60;53.50;;;;;;5014349;28;19920;-78
2023/04/30 12:11:39;;;;;;;;;;;27.60;53.30;;;;;;5030177;28;19924;-76
2023/04/30 12:14:06;;;;;;;;;;;27.70;53.30;;;;;;5024891;28;19929;-77
2023/04/30 12:16:50;;;;;;;;;;;27.60;53.20;;;;;;5026682;28;19921;-77
2023/04/30 12:19:16;;;;;;;;;;;27.40;53.20;;;;;;5031265;28;19946;-77
2023/04/30 12:21:43;;;;;;;;;;;27.40;53.30;;;;;;5027030;28;19925;-76
2023/04/30 12:24:12;;;;;;;;;;;27.40;53.40;;;;;;5024777;28;19926;-77
2023/04/30 12:26:38;;;;;;;;;;;27.40;53.30;;;;;;5022460;28;19931;-77
2023/04/30 12:29:04;;;;;;;;;;;27.30;53.30;;;;;;5015401;28;20464;-77
2023/04/30 12:31:30;;;;;;;;;;;27.40;54.10;;;;;;5043066;28;20364;-77
2023/04/30 12:33:56;;;;;;;;;;;27.40;53.30;;;;;;5029199;28;20371;-76
2023/04/30 12:36:21;;;;;;;;;;;27.40;53.30;;;;;;5030396;28;19973;-76
2023/04/30 12:38:47;;;;;;;;;;;27.40;53.20;;;;;;5046951;28;19967;-76
2023/04/30 12:41:14;;;;;;;;;;;27.50;53.30;;;;;;5029897;28;19936;-76
2023/04/30 12:43:39;;;;;;;;;;;27.50;53.30;;;;;;5027678;28;20264;-76
2023/04/30 12:46:05;;;;;;;;;;;27.50;53.20;;;;;;5020152;28;19924;-77
2023/04/30 12:48:30;;;;;;;;;;;27.60;53.20;;;;;;5011471;28;19921;-77
2023/04/30 12:51:04;;;;;;;;;;;27.70;53.20;;;;;;5028256;28;20342;-77
2023/04/30 12:53:29;;;;;;;;;;;27.80;53.10;;;;;;5031464;28;19932;-77
2023/04/30 12:56:11;;;;;;;;;;;27.80;52.90;;;;;;5014093;28;19921;-77
2023/04/30 12:58:36;;;;;;;;;;;27.80;52.80;;;;;;5031077;28;19994;-77
2023/04/30 13:01:02;;;;;;;;;;;27.70;52.80;;;;;;5020617;28;19952;-77
2023/04/30 13:03:27;;;;;;;;;;;27.60;52.90;;;;;;5011354;28;19925;-77
2023/04/30 13:05:53;;;;;;;;;;;27.60;53.00;;;;;;4993868;28;19992;-78
2023/04/30 13:08:19;;;;;;;;;;;27.60;53.00;;;;;;5013919;28;19930;-77
2023/04/30 13:10:48;;;;;;;;;;;27.70;53.00;;;;;;4997937;28;20326;-77
2023/04/30 13:13:14;;;;;;;;;;;27.80;53.00;;;;;;5012085;28;20435;-77
2023/04/30 13:15:41;;;;;;;;;;;27.90;52.90;;;;;;5039410;28;20323;-77
2023/04/30 13:18:09;;;;;;;;;;;27.90;52.70;;;;;;5026393;28;19925;-77
2023/04/30 13:20:37;;;;;;;;;;;27.80;52.50;;;;;;5027803;28;19924;-77
2023/04/30 13:23:03;;;;;;;;;;;27.70;52.60;;;;;;5022638;28;19936;-77
2023/04/30 13:25:29;;;;;;;;;;;27.50;52.60;;;;;;5030931;28;19925;-77
2023/04/30 13:27:54;;;;;;;;;;;27.40;52.80;;;;;;5029374;28;19982;-77
2023/04/30 13:30:21;;;;;;;;;;;27.40;52.90;;;;;;5030329;28;20469;-77
2023/04/30 13:32:46;;;;;;;;;;;27.40;53.00;;;;;;5029055;28;19920;-76
2023/04/30 13:35:12;;;;;;;;;;;27.60;53.00;;;;;;5031869;28;19927;-76
2023/04/30 13:37:37;;;;;;;;;;;27.70;52.90;;;;;;5014498;28;20443;-77
2023/04/30 13:40:05;;;;;;;;;;;27.80;52.80;;;;;;5003525;28;20495;-76
2023/04/30 13:42:30;;;;;;;;;;;27.90;52.60;;;;;;4997075;28;19936;-77
2023/04/30 13:44:56;;;;;;;;;;;27.90;52.50;;;;;;5007150;28;19925;-77
2023/04/30 13:47:22;;;;;;;;;;;28.00;52.40;;;;;;5008784;28;19932;-77
2023/04/30 13:49:47;;;;;;;;;;;27.90;52.20;;;;;;5017297;28;19980;-76
2023/04/30 13:52:12;;;;;;;;;;;27.80;53.00;;;;;;5011082;28;20425;-77
2023/04/30 13:54:38;;;;;;;;;;;27.80;52.40;;;;;;5010934;28;19979;-76
2023/04/30 13:57:04;;;;;;;;;;;27.80;52.40;;;;;;5024319;28;19925;-76
2023/04/30 13:59:30;;;;;;;;;;;27.90;52.40;;;;;;5045087;28;19971;-76
2023/04/30 14:01:56;;;;;;;;;;;28.00;52.30;;;;;;5010822;28;19932;-76
2023/04/30 14:04:21;;;;;;;;;;;28.00;53.00;;;;;;5026831;28;20004;-76
2023/04/30 14:06:47;;;;;;;;;;;27.90;52.20;;;;;;5029244;28;19925;-77
2023/04/30 14:09:13;;;;;;;;;;;27.90;52.20;;;;;;5029762;28;20414;-77
2023/04/30 14:11:38;;;;;;;;;;;27.80;52.20;;;;;;5032696;28;19921;-77
2023/04/30 14:14:04;;;;;;;;;;;27.80;52.20;;;;;;5040950;28;19917;-76
2023/04/30 14:16:30;;;;;;;;;;;27.90;52.30;;;;;;5029478;28;19998;-77